sensor_id;sensor_type;location;lat;lon;timestamp;P1;durP1;ratioP1;P2;durP2;ratioP2
3149;SDS011;32503;47.748;8.960;2024-03-02T00:01:20;15.93;;;11.73;;
3149;SDS011;32503;47.748;8.960;2024-03-02T00:03:47;19.40;;;12.50;;
3149;SDS011;32503;47.748;8.960;2024-03-02T00:06:14;21.63;;;13.07;;
3149;SDS011;32503;47.748;8.960;2024-03-02T00:08:45;23.23;;;14.40;;
3149;SDS011;32503;47.748;8.960;2024-03-02T00:11:12;17.70;;;12.50;;
3149;SDS011;32503;47.748;8.960;2024-03-02T00:13:42;22.20;;;14.60;;
3149;SDS011;32503;47.748;8.960;2024-03-02T00:16:09;16.00;;;10.97;;
3149;SDS011;32503;47.748;8.960;2024-03-02T00:18:37;17.07;;;11.87;;
3149;SDS011;32503;47.748;8.960;2024-03-02T00:21:05;17.13;;;12.00;;
3149;SDS011;32503;47.748;8.960;2024-03-02T00:23:34;21.00;;;11.20;;
3149;SDS011;32503;47.748;8.960;2024-03-02T00:26:02;18.87;;;12.40;;
3149;SDS011;32503;47.748;8.960;2024-03-02T00:28:30;14.80;;;11.00;;
3149;SDS011;32503;47.748;8.960;2024-03-02T00:31:01;19.80;;;12.47;;
3149;SDS011;32503;47.748;8.960;2024-03-02T00:33:31;16.30;;;12.40;;
3149;SDS011;32503;47.748;8.960;2024-03-02T00:36:01;17.70;;;12.37;;
3149;SDS011;32503;47.748;8.960;2024-03-02T00:38:29;22.37;;;12.60;;
3149;SDS011;32503;47.748;8.960;2024-03-02T00:40:58;19.40;;;11.13;;
3149;SDS011;32503;47.748;8.960;2024-03-02T00:43:37;19.60;;;12.67;;
3149;SDS011;32503;47.748;8.960;2024-03-02T00:46:11;20.70;;;11.80;;
3149;SDS011;32503;47.748;8.960;2024-03-02T00:48:41;15.80;;;12.00;;
3149;SDS011;32503;47.748;8.960;2024-03-02T00:51:17;19.07;;;12.70;;
3149;SDS011;32503;47.748;8.960;2024-03-02T00:53:44;18.33;;;12.37;;
3149;SDS011;32503;47.748;8.960;2024-03-02T00:56:11;21.23;;;12.60;;
3149;SDS011;32503;47.748;8.960;2024-03-02T00:58:39;21.47;;;12.40;;
3149;SDS011;32503;47.748;8.960;2024-03-02T01:01:06;21.33;;;12.83;;
3149;SDS011;32503;47.748;8.960;2024-03-02T01:03:36;18.60;;;12.20;;
3149;SDS011;32503;47.748;8.960;2024-03-02T01:06:03;20.50;;;12.87;;
3149;SDS011;32503;47.748;8.960;2024-03-02T01:08:32;19.10;;;11.20;;
3149;SDS011;32503;47.748;8.960;2024-03-02T01:11:00;23.00;;;13.60;;
3149;SDS011;32503;47.748;8.960;2024-03-02T01:13:27;19.73;;;11.87;;
3149;SDS011;32503;47.748;8.960;2024-03-02T01:15:54;25.00;;;13.50;;
3149;SDS011;32503;47.748;8.960;2024-03-02T01:18:22;20.63;;;11.83;;
3149;SDS011;32503;47.748;8.960;2024-03-02T01:20:51;23.93;;;13.77;;
3149;SDS011;32503;47.748;8.960;2024-03-02T01:23:20;24.03;;;12.43;;
3149;SDS011;32503;47.748;8.960;2024-03-02T01:25:48;22.30;;;13.50;;
3149;SDS011;32503;47.748;8.960;2024-03-02T01:28:16;23.17;;;13.67;;
3149;SDS011;32503;47.748;8.960;2024-03-02T01:30:43;23.63;;;13.40;;
3149;SDS011;32503;47.748;8.960;2024-03-02T01:33:10;25.33;;;14.07;;
3149;SDS011;32503;47.748;8.960;2024-03-02T01:35:37;24.20;;;14.10;;
3149;SDS011;32503;47.748;8.960;2024-03-02T01:38:05;19.50;;;13.00;;
3149;SDS011;32503;47.748;8.960;2024-03-02T01:40:33;21.83;;;13.00;;
3149;SDS011;32503;47.748;8.960;2024-03-02T01:43:00;19.10;;;12.47;;
3149;SDS011;32503;47.748;8.960;2024-03-02T01:45:27;27.63;;;14.90;;
3149;SDS011;32503;47.748;8.960;2024-03-02T01:47:54;19.50;;;11.87;;
3149;SDS011;32503;47.748;8.960;2024-03-02T01:50:25;18.97;;;12.40;;
3149;SDS011;32503;47.748;8.960;2024-03-02T01:52:54;20.60;;;12.93;;
3149;SDS011;32503;47.748;8.960;2024-03-02T01:55:23;21.93;;;13.03;;
3149;SDS011;32503;47.748;8.960;2024-03-02T01:57:50;19.70;;;12.63;;
3149;SDS011;32503;47.748;8.960;2024-03-02T02:00:19;15.17;;;10.63;;
3149;SDS011;32503;47.748;8.960;2024-03-02T02:02:47;21.00;;;12.37;;
3149;SDS011;32503;47.748;8.960;2024-03-02T02:05:14;19.10;;;13.30;;
3149;SDS011;32503;47.748;8.960;2024-03-02T02:07:42;22.53;;;12.03;;
3149;SDS011;32503;47.748;8.960;2024-03-02T02:10:09;17.63;;;12.17;;
3149;SDS011;32503;47.748;8.960;2024-03-02T02:12:38;22.87;;;13.60;;
3149;SDS011;32503;47.748;8.960;2024-03-02T02:15:21;19.50;;;12.10;;
3149;SDS011;32503;47.748;8.960;2024-03-02T02:17:49;20.03;;;12.53;;
3149;SDS011;32503;47.748;8.960;2024-03-02T02:20:16;20.37;;;13.73;;
3149;SDS011;32503;47.748;8.960;2024-03-02T02:22:58;19.07;;;12.50;;
3149;SDS011;32503;47.748;8.960;2024-03-02T02:25:26;20.40;;;12.10;;
3149;SDS011;32503;47.748;8.960;2024-03-02T02:27:53;17.73;;;12.30;;
3149;SDS011;32503;47.748;8.960;2024-03-02T02:30:22;19.47;;;10.93;;
3149;SDS011;32503;47.748;8.960;2024-03-02T02:32:51;16.77;;;11.10;;
3149;SDS011;32503;47.748;8.960;2024-03-02T02:35:19;17.60;;;11.77;;
3149;SDS011;32503;47.748;8.960;2024-03-02T02:37:46;21.73;;;12.90;;
3149;SDS011;32503;47.748;8.960;2024-03-02T02:40:16;21.60;;;12.13;;
3149;SDS011;32503;47.748;8.960;2024-03-02T02:42:44;20.97;;;13.20;;
3149;SDS011;32503;47.748;8.960;2024-03-02T02:45:11;19.43;;;11.60;;
3149;SDS011;32503;47.748;8.960;2024-03-02T02:47:39;21.50;;;12.33;;
3149;SDS011;32503;47.748;8.960;2024-03-02T02:50:07;19.00;;;11.80;;
3149;SDS011;32503;47.748;8.960;2024-03-02T02:52:35;19.97;;;14.13;;
3149;SDS011;32503;47.748;8.960;2024-03-02T02:55:05;23.57;;;12.37;;
3149;SDS011;32503;47.748;8.960;2024-03-02T02:57:35;22.80;;;13.77;;
3149;SDS011;32503;47.748;8.960;2024-03-02T03:00:05;21.27;;;12.37;;
3149;SDS011;32503;47.748;8.960;2024-03-02T03:02:36;16.93;;;11.10;;
3149;SDS011;32503;47.748;8.960;2024-03-02T03:05:04;18.37;;;11.13;;
3149;SDS011;32503;47.748;8.960;2024-03-02T03:07:32;16.57;;;10.80;;
3149;SDS011;32503;47.748;8.960;2024-03-02T03:10:00;15.63;;;10.20;;
3149;SDS011;32503;47.748;8.960;2024-03-02T03:12:28;17.67;;;11.20;;
3149;SDS011;32503;47.748;8.960;2024-03-02T03:14:57;16.47;;;11.30;;
3149;SDS011;32503;47.748;8.960;2024-03-02T03:17:25;13.90;;;9.97;;
3149;SDS011;32503;47.748;8.960;2024-03-02T03:19:52;15.17;;;10.63;;
3149;SDS011;32503;47.748;8.960;2024-03-02T03:22:19;15.40;;;10.63;;
3149;SDS011;32503;47.748;8.960;2024-03-02T03:24:46;11.17;;;8.80;;
3149;SDS011;32503;47.748;8.960;2024-03-02T03:27:13;14.40;;;10.47;;
3149;SDS011;32503;47.748;8.960;2024-03-02T03:29:40;13.47;;;9.87;;
3149;SDS011;32503;47.748;8.960;2024-03-02T03:32:09;14.77;;;10.27;;
3149;SDS011;32503;47.748;8.960;2024-03-02T03:34:36;15.57;;;10.50;;
3149;SDS011;32503;47.748;8.960;2024-03-02T03:37:03;18.67;;;11.70;;
3149;SDS011;32503;47.748;8.960;2024-03-02T03:39:30;23.13;;;12.07;;
3149;SDS011;32503;47.748;8.960;2024-03-02T03:41:57;19.43;;;10.93;;
3149;SDS011;32503;47.748;8.960;2024-03-02T03:44:24;21.40;;;12.23;;
3149;SDS011;32503;47.748;8.960;2024-03-02T03:46:51;16.00;;;11.07;;
3149;SDS011;32503;47.748;8.960;2024-03-02T03:49:20;19.60;;;11.60;;
3149;SDS011;32503;47.748;8.960;2024-03-02T03:51:47;18.23;;;11.10;;
3149;SDS011;32503;47.748;8.960;2024-03-02T03:54:14;13.23;;;10.80;;
3149;SDS011;32503;47.748;8.960;2024-03-02T03:56:41;20.87;;;12.67;;
3149;SDS011;32503;47.748;8.960;2024-03-02T03:59:08;17.70;;;11.27;;
3149;SDS011;32503;47.748;8.960;2024-03-02T04:01:35;15.63;;;10.23;;
3149;SDS011;32503;47.748;8.960;2024-03-02T04:04:03;16.87;;;11.40;;
3149;SDS011;32503;47.748;8.960;2024-03-02T04:06:31;16.83;;;10.80;;
3149;SDS011;32503;47.748;8.960;2024-03-02T04:08:58;22.77;;;13.37;;
3149;SDS011;32503;47.748;8.960;2024-03-02T04:11:25;19.43;;;11.40;;
3149;SDS011;32503;47.748;8.960;2024-03-02T04:13:53;15.93;;;11.10;;
3149;SDS011;32503;47.748;8.960;2024-03-02T04:16:20;19.17;;;12.47;;
3149;SDS011;32503;47.748;8.960;2024-03-02T04:18:47;19.70;;;11.40;;
3149;SDS011;32503;47.748;8.960;2024-03-02T04:21:14;15.17;;;10.90;;
3149;SDS011;32503;47.748;8.960;2024-03-02T04:23:42;17.40;;;11.27;;
3149;SDS011;32503;47.748;8.960;2024-03-02T04:26:09;19.00;;;10.50;;
3149;SDS011;32503;47.748;8.960;2024-03-02T04:28:36;16.70;;;10.80;;
3149;SDS011;32503;47.748;8.960;2024-03-02T04:31:03;16.63;;;10.70;;
3149;SDS011;32503;47.748;8.960;2024-03-02T04:33:30;17.30;;;11.30;;
3149;SDS011;32503;47.748;8.960;2024-03-02T04:35:57;14.20;;;9.93;;
3149;SDS011;32503;47.748;8.960;2024-03-02T04:38:24;16.20;;;9.27;;
3149;SDS011;32503;47.748;8.960;2024-03-02T04:40:52;13.80;;;8.97;;
3149;SDS011;32503;47.748;8.960;2024-03-02T04:43:19;15.00;;;10.03;;
3149;SDS011;32503;47.748;8.960;2024-03-02T04:45:46;12.97;;;9.43;;
3149;SDS011;32503;47.748;8.960;2024-03-02T04:48:13;12.87;;;9.27;;
3149;SDS011;32503;47.748;8.960;2024-03-02T04:50:40;14.07;;;8.90;;
3149;SDS011;32503;47.748;8.960;2024-03-02T04:53:07;14.63;;;9.20;;
3149;SDS011;32503;47.748;8.960;2024-03-02T04:55:34;15.93;;;9.80;;
3149;SDS011;32503;47.748;8.960;2024-03-02T04:58:30;13.03;;;9.97;;
3149;SDS011;32503;47.748;8.960;2024-03-02T05:00:57;13.53;;;9.90;;
3149;SDS011;32503;47.748;8.960;2024-03-02T05:03:24;15.03;;;10.23;;
3149;SDS011;32503;47.748;8.960;2024-03-02T05:05:51;13.93;;;9.97;;
3149;SDS011;32503;47.748;8.960;2024-03-02T05:08:18;18.83;;;11.50;;
3149;SDS011;32503;47.748;8.960;2024-03-02T05:10:45;15.73;;;9.73;;
3149;SDS011;32503;47.748;8.960;2024-03-02T05:13:12;16.07;;;10.87;;
3149;SDS011;32503;47.748;8.960;2024-03-02T05:15:39;17.30;;;10.83;;
3149;SDS011;32503;47.748;8.960;2024-03-02T05:18:06;19.70;;;10.47;;
3149;SDS011;32503;47.748;8.960;2024-03-02T05:20:33;15.80;;;10.80;;
3149;SDS011;32503;47.748;8.960;2024-03-02T05:23:00;18.77;;;10.03;;
3149;SDS011;32503;47.748;8.960;2024-03-02T05:25:27;16.60;;;10.57;;
3149;SDS011;32503;47.748;8.960;2024-03-02T05:27:54;18.73;;;9.83;;
3149;SDS011;32503;47.748;8.960;2024-03-02T05:30:21;14.30;;;9.80;;
3149;SDS011;32503;47.748;8.960;2024-03-02T05:32:52;20.00;;;11.60;;
3149;SDS011;32503;47.748;8.960;2024-03-02T05:35:19;15.57;;;9.97;;
3149;SDS011;32503;47.748;8.960;2024-03-02T05:37:46;17.27;;;10.57;;
3149;SDS011;32503;47.748;8.960;2024-03-02T05:40:13;15.83;;;9.80;;
3149;SDS011;32503;47.748;8.960;2024-03-02T05:42:41;18.17;;;11.60;;
3149;SDS011;32503;47.748;8.960;2024-03-02T05:45:08;22.70;;;12.07;;
3149;SDS011;32503;47.748;8.960;2024-03-02T05:47:35;22.80;;;13.67;;
3149;SDS011;32503;47.748;8.960;2024-03-02T05:50:05;17.30;;;11.47;;
3149;SDS011;32503;47.748;8.960;2024-03-02T05:52:33;16.97;;;10.40;;
3149;SDS011;32503;47.748;8.960;2024-03-02T05:55:00;18.40;;;12.63;;
3149;SDS011;32503;47.748;8.960;2024-03-02T05:57:27;18.70;;;10.50;;
3149;SDS011;32503;47.748;8.960;2024-03-02T06:00:10;14.27;;;8.83;;
3149;SDS011;32503;47.748;8.960;2024-03-02T06:02:39;17.63;;;9.90;;
3149;SDS011;32503;47.748;8.960;2024-03-02T06:05:07;18.40;;;10.90;;
3149;SDS011;32503;47.748;8.960;2024-03-02T06:07:35;18.10;;;11.17;;
3149;SDS011;32503;47.748;8.960;2024-03-02T06:10:02;21.37;;;11.30;;
3149;SDS011;32503;47.748;8.960;2024-03-02T06:12:32;18.10;;;11.27;;
3149;SDS011;32503;47.748;8.960;2024-03-02T06:14:59;17.60;;;11.73;;
3149;SDS011;32503;47.748;8.960;2024-03-02T06:17:26;21.30;;;11.80;;
3149;SDS011;32503;47.748;8.960;2024-03-02T06:19:53;19.50;;;10.67;;
3149;SDS011;32503;47.748;8.960;2024-03-02T06:22:22;18.70;;;10.80;;
3149;SDS011;32503;47.748;8.960;2024-03-02T06:24:50;18.20;;;11.17;;
3149;SDS011;32503;47.748;8.960;2024-03-02T06:27:17;17.20;;;11.27;;
3149;SDS011;32503;47.748;8.960;2024-03-02T06:29:44;17.10;;;11.00;;
3149;SDS011;32503;47.748;8.960;2024-03-02T06:32:11;18.47;;;11.70;;
3149;SDS011;32503;47.748;8.960;2024-03-02T06:34:38;19.87;;;10.67;;
3149;SDS011;32503;47.748;8.960;2024-03-02T06:37:05;20.47;;;11.93;;
3149;SDS011;32503;47.748;8.960;2024-03-02T06:39:34;19.33;;;11.33;;
3149;SDS011;32503;47.748;8.960;2024-03-02T06:42:01;18.57;;;11.00;;
3149;SDS011;32503;47.748;8.960;2024-03-02T06:44:28;19.07;;;11.40;;
3149;SDS011;32503;47.748;8.960;2024-03-02T06:46:55;19.67;;;10.10;;
3149;SDS011;32503;47.748;8.960;2024-03-02T06:49:22;16.27;;;10.00;;
3149;SDS011;32503;47.748;8.960;2024-03-02T06:51:49;20.20;;;12.93;;
3149;SDS011;32503;47.748;8.960;2024-03-02T06:54:16;14.27;;;10.20;;
3149;SDS011;32503;47.748;8.960;2024-03-02T06:56:45;13.37;;;9.90;;
3149;SDS011;32503;47.748;8.960;2024-03-02T06:59:12;18.03;;;9.70;;
3149;SDS011;32503;47.748;8.960;2024-03-02T07:01:39;14.13;;;9.83;;
3149;SDS011;32503;47.748;8.960;2024-03-02T07:04:07;20.90;;;14.73;;
3149;SDS011;32503;47.748;8.960;2024-03-02T07:06:34;17.80;;;12.73;;
3149;SDS011;32503;47.748;8.960;2024-03-02T07:09:01;18.30;;;11.23;;
3149;SDS011;32503;47.748;8.960;2024-03-02T07:11:28;17.43;;;13.57;;
3149;SDS011;32503;47.748;8.960;2024-03-02T07:13:56;18.03;;;10.67;;
3149;SDS011;32503;47.748;8.960;2024-03-02T07:16:23;23.53;;;10.50;;
3149;SDS011;32503;47.748;8.960;2024-03-02T07:18:58;15.70;;;10.10;;
3149;SDS011;32503;47.748;8.960;2024-03-02T07:21:26;18.23;;;10.30;;
3149;SDS011;32503;47.748;8.960;2024-03-02T07:23:54;16.57;;;10.83;;
3149;SDS011;32503;47.748;8.960;2024-03-02T07:26:21;15.80;;;10.20;;
3149;SDS011;32503;47.748;8.960;2024-03-02T07:28:48;20.77;;;12.20;;
3149;SDS011;32503;47.748;8.960;2024-03-02T07:31:17;15.73;;;10.70;;
3149;SDS011;32503;47.748;8.960;2024-03-02T07:33:44;15.37;;;10.23;;
3149;SDS011;32503;47.748;8.960;2024-03-02T07:36:11;14.23;;;9.47;;
3149;SDS011;32503;47.748;8.960;2024-03-02T07:38:39;12.70;;;9.70;;
3149;SDS011;32503;47.748;8.960;2024-03-02T07:41:06;17.30;;;10.10;;
3149;SDS011;32503;47.748;8.960;2024-03-02T07:43:36;15.00;;;9.63;;
3149;SDS011;32503;47.748;8.960;2024-03-02T07:46:03;15.43;;;10.03;;
3149;SDS011;32503;47.748;8.960;2024-03-02T07:48:32;21.37;;;16.20;;
3149;SDS011;32503;47.748;8.960;2024-03-02T07:50:59;24.97;;;17.10;;
3149;SDS011;32503;47.748;8.960;2024-03-02T07:53:27;19.03;;;14.30;;
3149;SDS011;32503;47.748;8.960;2024-03-02T07:55:54;15.43;;;11.20;;
3149;SDS011;32503;47.748;8.960;2024-03-02T07:58:26;18.00;;;10.80;;
3149;SDS011;32503;47.748;8.960;2024-03-02T08:00:54;17.10;;;10.67;;
3149;SDS011;32503;47.748;8.960;2024-03-02T08:03:21;17.00;;;10.20;;
3149;SDS011;32503;47.748;8.960;2024-03-02T08:05:49;20.27;;;11.73;;
3149;SDS011;32503;47.748;8.960;2024-03-02T08:10:44;122.80;;;47.00;;
3149;SDS011;32503;47.748;8.960;2024-03-02T08:13:11;54.93;;;27.17;;
3149;SDS011;32503;47.748;8.960;2024-03-02T08:15:39;25.73;;;13.80;;
3149;SDS011;32503;47.748;8.960;2024-03-02T08:18:06;20.00;;;12.53;;
3149;SDS011;32503;47.748;8.960;2024-03-02T08:20:33;17.70;;;10.27;;
3149;SDS011;32503;47.748;8.960;2024-03-02T08:23:02;19.60;;;10.20;;
3149;SDS011;32503;47.748;8.960;2024-03-02T08:25:29;15.00;;;9.70;;
3149;SDS011;32503;47.748;8.960;2024-03-02T08:27:57;29.77;;;16.07;;
3149;SDS011;32503;47.748;8.960;2024-03-02T08:30:24;27.90;;;15.80;;
3149;SDS011;32503;47.748;8.960;2024-03-02T08:32:51;16.00;;;10.53;;
3149;SDS011;32503;47.748;8.960;2024-03-02T08:35:18;25.67;;;13.80;;
3149;SDS011;32503;47.748;8.960;2024-03-02T08:37:47;14.17;;;8.73;;
3149;SDS011;32503;47.748;8.960;2024-03-02T08:40:16;16.53;;;10.20;;
3149;SDS011;32503;47.748;8.960;2024-03-02T08:42:43;13.50;;;9.03;;
3149;SDS011;32503;47.748;8.960;2024-03-02T08:45:10;15.27;;;9.97;;
3149;SDS011;32503;47.748;8.960;2024-03-02T08:47:38;14.83;;;10.00;;
3149;SDS011;32503;47.748;8.960;2024-03-02T08:50:05;17.03;;;10.53;;
3149;SDS011;32503;47.748;8.960;2024-03-02T08:52:34;11.67;;;9.23;;
3149;SDS011;32503;47.748;8.960;2024-03-02T08:55:01;15.30;;;9.17;;
3149;SDS011;32503;47.748;8.960;2024-03-02T08:57:30;14.77;;;9.70;;
3149;SDS011;32503;47.748;8.960;2024-03-02T08:59:58;14.57;;;9.70;;
3149;SDS011;32503;47.748;8.960;2024-03-02T09:02:25;18.33;;;13.57;;
3149;SDS011;32503;47.748;8.960;2024-03-02T09:04:52;24.30;;;14.23;;
3149;SDS011;32503;47.748;8.960;2024-03-02T09:07:19;20.53;;;12.00;;
3149;SDS011;32503;47.748;8.960;2024-03-02T09:09:46;15.20;;;11.17;;
3149;SDS011;32503;47.748;8.960;2024-03-02T09:12:13;26.33;;;17.73;;
3149;SDS011;32503;47.748;8.960;2024-03-02T09:14:42;23.07;;;13.73;;
3149;SDS011;32503;47.748;8.960;2024-03-02T09:17:09;17.50;;;11.17;;
3149;SDS011;32503;47.748;8.960;2024-03-02T09:19:37;13.43;;;8.97;;
3149;SDS011;32503;47.748;8.960;2024-03-02T09:22:04;14.83;;;8.77;;
3149;SDS011;32503;47.748;8.960;2024-03-02T09:24:31;19.50;;;10.27;;
3149;SDS011;32503;47.748;8.960;2024-03-02T09:26:59;14.20;;;9.47;;
3149;SDS011;32503;47.748;8.960;2024-03-02T09:29:26;21.57;;;12.53;;
3149;SDS011;32503;47.748;8.960;2024-03-02T09:31:54;12.40;;;10.17;;
3149;SDS011;32503;47.748;8.960;2024-03-02T09:34:21;15.37;;;10.10;;
3149;SDS011;32503;47.748;8.960;2024-03-02T09:36:49;14.40;;;10.07;;
3149;SDS011;32503;47.748;8.960;2024-03-02T09:39:17;12.90;;;8.70;;
3149;SDS011;32503;47.748;8.960;2024-03-02T09:41:44;13.73;;;8.43;;
3149;SDS011;32503;47.748;8.960;2024-03-02T09:44:13;12.53;;;8.67;;
3149;SDS011;32503;47.748;8.960;2024-03-02T09:46:40;12.40;;;8.90;;
3149;SDS011;32503;47.748;8.960;2024-03-02T09:49:10;17.67;;;10.00;;
3149;SDS011;32503;47.748;8.960;2024-03-02T09:51:37;16.47;;;8.93;;
3149;SDS011;32503;47.748;8.960;2024-03-02T09:54:04;12.63;;;8.30;;
3149;SDS011;32503;47.748;8.960;2024-03-02T09:56:34;12.40;;;8.07;;
3149;SDS011;32503;47.748;8.960;2024-03-02T09:59:01;14.60;;;8.60;;
3149;SDS011;32503;47.748;8.960;2024-03-02T10:01:28;8.50;;;7.17;;
3149;SDS011;32503;47.748;8.960;2024-03-02T10:03:55;11.83;;;7.90;;
3149;SDS011;32503;47.748;8.960;2024-03-02T10:06:26;13.00;;;8.27;;
3149;SDS011;32503;47.748;8.960;2024-03-02T10:08:55;16.97;;;10.27;;
3149;SDS011;32503;47.748;8.960;2024-03-02T10:11:27;11.10;;;8.73;;
3149;SDS011;32503;47.748;8.960;2024-03-02T10:14:04;14.47;;;8.77;;
3149;SDS011;32503;47.748;8.960;2024-03-02T10:16:33;9.00;;;8.03;;
3149;SDS011;32503;47.748;8.960;2024-03-02T10:19:14;13.17;;;9.90;;
3149;SDS011;32503;47.748;8.960;2024-03-02T10:21:45;14.10;;;8.67;;
3149;SDS011;32503;47.748;8.960;2024-03-02T10:24:12;14.30;;;8.97;;
3149;SDS011;32503;47.748;8.960;2024-03-02T10:26:39;12.70;;;8.80;;
3149;SDS011;32503;47.748;8.960;2024-03-02T10:29:08;12.17;;;8.30;;
3149;SDS011;32503;47.748;8.960;2024-03-02T10:31:36;13.07;;;8.40;;
3149;SDS011;32503;47.748;8.960;2024-03-02T10:34:04;17.00;;;11.97;;
3149;SDS011;32503;47.748;8.960;2024-03-02T10:36:32;16.03;;;10.47;;
3149;SDS011;32503;47.748;8.960;2024-03-02T10:39:02;14.70;;;10.10;;
3149;SDS011;32503;47.748;8.960;2024-03-02T10:41:32;16.00;;;9.77;;
3149;SDS011;32503;47.748;8.960;2024-03-02T10:44:01;14.70;;;9.80;;
3149;SDS011;32503;47.748;8.960;2024-03-02T10:46:30;14.87;;;9.57;;
3149;SDS011;32503;47.748;8.960;2024-03-02T10:49:00;15.73;;;9.57;;
3149;SDS011;32503;47.748;8.960;2024-03-02T10:51:29;14.23;;;8.93;;
3149;SDS011;32503;47.748;8.960;2024-03-02T10:53:58;12.57;;;9.60;;
3149;SDS011;32503;47.748;8.960;2024-03-02T10:56:29;12.20;;;8.73;;
3149;SDS011;32503;47.748;8.960;2024-03-02T10:59:01;14.47;;;9.07;;
3149;SDS011;32503;47.748;8.960;2024-03-02T11:01:31;16.13;;;9.50;;
3149;SDS011;32503;47.748;8.960;2024-03-02T11:03:59;15.23;;;9.90;;
3149;SDS011;32503;47.748;8.960;2024-03-02T11:06:30;11.63;;;8.43;;
3149;SDS011;32503;47.748;8.960;2024-03-02T11:09:00;14.00;;;9.60;;
3149;SDS011;32503;47.748;8.960;2024-03-02T11:11:36;14.03;;;9.40;;
3149;SDS011;32503;47.748;8.960;2024-03-02T11:14:07;10.80;;;8.67;;
3149;SDS011;32503;47.748;8.960;2024-03-02T11:16:42;10.07;;;8.60;;
3149;SDS011;32503;47.748;8.960;2024-03-02T11:19:11;11.90;;;8.10;;
3149;SDS011;32503;47.748;8.960;2024-03-02T11:21:41;11.37;;;9.70;;
3149;SDS011;32503;47.748;8.960;2024-03-02T11:24:28;11.43;;;8.90;;
3149;SDS011;32503;47.748;8.960;2024-03-02T11:27:00;11.70;;;8.60;;
3149;SDS011;32503;47.748;8.960;2024-03-02T11:29:43;13.97;;;9.87;;
3149;SDS011;32503;47.748;8.960;2024-03-02T11:32:17;12.53;;;8.50;;
3149;SDS011;32503;47.748;8.960;2024-03-02T11:34:49;10.80;;;9.17;;
3149;SDS011;32503;47.748;8.960;2024-03-02T11:37:17;11.10;;;8.07;;
3149;SDS011;32503;47.748;8.960;2024-03-02T11:39:46;9.97;;;7.30;;
3149;SDS011;32503;47.748;8.960;2024-03-02T11:42:17;11.20;;;8.33;;
3149;SDS011;32503;47.748;8.960;2024-03-02T11:44:45;7.90;;;7.10;;
3149;SDS011;32503;47.748;8.960;2024-03-02T11:47:14;8.43;;;7.57;;
3149;SDS011;32503;47.748;8.960;2024-03-02T11:49:43;9.73;;;7.97;;
3149;SDS011;32503;47.748;8.960;2024-03-02T11:52:12;10.47;;;9.37;;
3149;SDS011;32503;47.748;8.960;2024-03-02T11:54:41;9.40;;;7.67;;
3149;SDS011;32503;47.748;8.960;2024-03-02T11:57:13;9.40;;;7.50;;
3149;SDS011;32503;47.748;8.960;2024-03-02T11:59:42;8.97;;;7.73;;
3149;SDS011;32503;47.748;8.960;2024-03-02T12:02:14;9.07;;;7.07;;
3149;SDS011;32503;47.748;8.960;2024-03-02T12:04:43;9.03;;;7.93;;
3149;SDS011;32503;47.748;8.960;2024-03-02T12:07:11;9.10;;;8.20;;
3149;SDS011;32503;47.748;8.960;2024-03-02T12:09:38;7.20;;;6.60;;
3149;SDS011;32503;47.748;8.960;2024-03-02T12:12:06;8.30;;;7.50;;
3149;SDS011;32503;47.748;8.960;2024-03-02T12:14:35;9.70;;;8.70;;
3149;SDS011;32503;47.748;8.960;2024-03-02T12:17:05;7.20;;;6.50;;
3149;SDS011;32503;47.748;8.960;2024-03-02T12:19:32;8.03;;;7.10;;
3149;SDS011;32503;47.748;8.960;2024-03-02T12:22:00;6.93;;;6.33;;
3149;SDS011;32503;47.748;8.960;2024-03-02T12:24:27;6.50;;;6.00;;
3149;SDS011;32503;47.748;8.960;2024-03-02T12:26:56;6.80;;;6.10;;
3149;SDS011;32503;47.748;8.960;2024-03-02T12:29:23;6.57;;;5.57;;
3149;SDS011;32503;47.748;8.960;2024-03-02T12:31:51;7.00;;;6.30;;
3149;SDS011;32503;47.748;8.960;2024-03-02T12:34:21;8.07;;;7.30;;
3149;SDS011;32503;47.748;8.960;2024-03-02T12:36:48;6.03;;;5.53;;
3149;SDS011;32503;47.748;8.960;2024-03-02T12:39:18;5.13;;;4.60;;
3149;SDS011;32503;47.748;8.960;2024-03-02T12:41:48;5.00;;;4.60;;
3149;SDS011;32503;47.748;8.960;2024-03-02T12:44:16;5.70;;;5.30;;
3149;SDS011;32503;47.748;8.960;2024-03-02T12:46:44;5.40;;;5.10;;
3149;SDS011;32503;47.748;8.960;2024-03-02T12:49:12;4.40;;;4.10;;
3149;SDS011;32503;47.748;8.960;2024-03-02T12:51:42;3.90;;;3.60;;
3149;SDS011;32503;47.748;8.960;2024-03-02T12:54:12;3.33;;;3.13;;
3149;SDS011;32503;47.748;8.960;2024-03-02T12:56:40;5.33;;;4.50;;
3149;SDS011;32503;47.748;8.960;2024-03-02T12:59:10;4.80;;;4.50;;
3149;SDS011;32503;47.748;8.960;2024-03-02T13:01:55;4.73;;;4.43;;
3149;SDS011;32503;47.748;8.960;2024-03-02T13:04:23;4.97;;;4.57;;
3149;SDS011;32503;47.748;8.960;2024-03-02T13:06:52;3.90;;;3.70;;
3149;SDS011;32503;47.748;8.960;2024-03-02T13:09:22;6.00;;;5.60;;
3149;SDS011;32503;47.748;8.960;2024-03-02T13:11:50;5.00;;;4.70;;
3149;SDS011;32503;47.748;8.960;2024-03-02T13:14:17;3.77;;;3.47;;
3149;SDS011;32503;47.748;8.960;2024-03-02T13:16:44;3.00;;;2.80;;
3149;SDS011;32503;47.748;8.960;2024-03-02T13:19:12;3.43;;;3.23;;
3149;SDS011;32503;47.748;8.960;2024-03-02T13:21:39;2.63;;;2.53;;
3149;SDS011;32503;47.748;8.960;2024-03-02T13:24:08;2.50;;;2.40;;
3149;SDS011;32503;47.748;8.960;2024-03-02T13:26:35;2.80;;;2.70;;
3149;SDS011;32503;47.748;8.960;2024-03-02T13:29:02;3.47;;;3.17;;
3149;SDS011;32503;47.748;8.960;2024-03-02T13:31:29;2.57;;;2.43;;
3149;SDS011;32503;47.748;8.960;2024-03-02T13:33:56;2.90;;;2.70;;
3149;SDS011;32503;47.748;8.960;2024-03-02T13:36:23;2.57;;;2.47;;
3149;SDS011;32503;47.748;8.960;2024-03-02T13:38:50;3.23;;;3.13;;
3149;SDS011;32503;47.748;8.960;2024-03-02T13:41:19;3.00;;;2.80;;
3149;SDS011;32503;47.748;8.960;2024-03-02T13:43:46;3.20;;;3.10;;
3149;SDS011;32503;47.748;8.960;2024-03-02T13:46:13;4.17;;;3.87;;
3149;SDS011;32503;47.748;8.960;2024-03-02T13:48:40;4.23;;;3.93;;
3149;SDS011;32503;47.748;8.960;2024-03-02T13:51:07;3.87;;;3.57;;
3149;SDS011;32503;47.748;8.960;2024-03-02T13:53:34;3.23;;;3.03;;
3149;SDS011;32503;47.748;8.960;2024-03-02T13:56:02;3.30;;;3.20;;
3149;SDS011;32503;47.748;8.960;2024-03-02T13:58:31;3.53;;;3.33;;
3149;SDS011;32503;47.748;8.960;2024-03-02T14:00:59;3.33;;;3.13;;
3149;SDS011;32503;47.748;8.960;2024-03-02T14:03:26;2.63;;;2.53;;
3149;SDS011;32503;47.748;8.960;2024-03-02T14:05:53;3.00;;;2.90;;
3149;SDS011;32503;47.748;8.960;2024-03-02T14:08:21;3.03;;;2.93;;
3149;SDS011;32503;47.748;8.960;2024-03-02T14:10:48;3.60;;;3.40;;
3149;SDS011;32503;47.748;8.960;2024-03-02T14:13:15;3.27;;;3.07;;
3149;SDS011;32503;47.748;8.960;2024-03-02T14:15:44;3.67;;;2.87;;
3149;SDS011;32503;47.748;8.960;2024-03-02T14:18:11;2.83;;;2.63;;
3149;SDS011;32503;47.748;8.960;2024-03-02T14:20:38;3.60;;;3.40;;
3149;SDS011;32503;47.748;8.960;2024-03-02T14:23:07;2.23;;;2.13;;
3149;SDS011;32503;47.748;8.960;2024-03-02T14:25:35;1.50;;;1.40;;
3149;SDS011;32503;47.748;8.960;2024-03-02T14:28:02;1.20;;;1.10;;
3149;SDS011;32503;47.748;8.960;2024-03-02T14:30:30;1.40;;;1.30;;
3149;SDS011;32503;47.748;8.960;2024-03-02T14:32:58;1.73;;;1.63;;
3149;SDS011;32503;47.748;8.960;2024-03-02T14:35:25;1.90;;;1.80;;
3149;SDS011;32503;47.748;8.960;2024-03-02T14:37:53;1.80;;;1.70;;
3149;SDS011;32503;47.748;8.960;2024-03-02T14:40:22;1.17;;;1.10;;
3149;SDS011;32503;47.748;8.960;2024-03-02T14:42:51;1.63;;;1.53;;
3149;SDS011;32503;47.748;8.960;2024-03-02T14:45:19;1.20;;;1.10;;
3149;SDS011;32503;47.748;8.960;2024-03-02T14:47:46;2.07;;;1.23;;
3149;SDS011;32503;47.748;8.960;2024-03-02T14:50:15;2.70;;;2.50;;
3149;SDS011;32503;47.748;8.960;2024-03-02T14:52:43;2.17;;;2.07;;